Weather History for Centralia, IL

Change the Weather History Date:

Thursday, March 28, 2013

  Actual Average (KSLO) Record (KSLO)
Temperature  
Mean Temperature 46 °F -  
Max Temperature 57 °F 63 °F 83 °F (1985)
Min Temperature 34 °F 40 °F 22 °F (1966)
Degree Days  
Heating Degree Days 20    
Moisture  
Dew Point 33 °F    
Average Humidity 60    
Maximum Humidity 85    
Minimum Humidity 45    
Precipitation  
Precipitation 0.00 in - - ()
Sea Level Pressure  
Sea Level Pressure 30.33 in    
Wind  
Wind Speed 3 mph (ESE)    
Max Wind Speed 9 mph    
Max Gust Speed -    
Visibility 10 miles    
Events      
Averages and records for this station are not official NWS values.
T = Trace of Precipitation, MM = Missing Value Source: NWS Daily Summary

Daily Weather History Graph

Daily Weather History Graph

Search for Another Location

Airport:

Trip Planner

Search our weather history database for the weather conditions in past years. The results will help you decide how hot, cold, wet, or windy it might be!

Date:

Astronomy

Mar. 28, 2013 Rise Set
Actual Time 6:47 AM CDT 7:16 PM CDT
Civil Twilight 6:20 AM CDT 7:42 PM CDT
Nautical Twilight 5:49 AM CDT 8:14 PM CDT
Astronomical Twilight 5:17 AM CDT 8:46 PM CDT
Moon 9:06 PM CDT (3/28) 7:16 AM CDT (3/28)
Length of Visible Light 13h 22m
Length of Day
12h 29m
Full, 98% of the Moon is Illuminated
Mar 28
Full
Apr 2
Last Quarter
Apr 10
New
Apr 18
First Quarter
Apr 25
Full

Hourly Weather History & Observations

Time (CDT) Temp. Windchill Dew Point Humidity Pressure Visibility Wind Dir Wind Speed Gust Speed Precip Events Conditions
12:15 AM 38.3 °F 35.9 °F 29.3 °F 70% 30.34 in 10.0 mi NE 3.5 mph - N/A   Unknown
12:35 AM 38.3 °F - 29.5 °F 71% 30.34 in 10.0 mi Calm Calm - N/A   Unknown
12:55 AM 37.8 °F - 30.0 °F 74% 30.35 in 10.0 mi Calm Calm - N/A   Unknown
1:15 AM 37.8 °F - 29.3 °F 72% 30.35 in 10.0 mi Calm Calm - N/A   Unknown
1:35 AM 36.9 °F 34.3 °F 31.5 °F 81% 30.35 in 10.0 mi SE 3.5 mph - N/A   Unknown
1:55 AM 37.6 °F - 31.1 °F 77% 30.35 in 10.0 mi Calm Calm - N/A   Unknown
2:35 AM 37.4 °F 34.9 °F 30.0 °F 75% 30.34 in 10.0 mi East 3.5 mph - N/A   Unknown
2:55 AM 36.9 °F - 28.9 °F 73% 30.33 in 10.0 mi Calm Calm - N/A   Unknown
3:15 AM 36.5 °F - 30.2 °F 78% 30.33 in 10.0 mi Calm Calm - N/A   Unknown
3:35 AM 36.5 °F - 29.3 °F 75% 30.33 in 10.0 mi Calm Calm - N/A   Unknown
3:55 AM 36.1 °F - 28.8 °F 75% 30.33 in 10.0 mi Calm Calm - N/A   Unknown
4:15 AM 35.8 °F 33.0 °F 28.9 °F 76% 30.33 in 10.0 mi ENE 3.5 mph - N/A   Unknown
4:35 AM 34.9 °F 32.0 °F 29.7 °F 81% 30.33 in 10.0 mi ENE 3.5 mph - N/A   Unknown
4:55 AM 35.4 °F - 28.0 °F 75% 30.34 in 10.0 mi Calm Calm - N/A   Unknown
5:15 AM 34.7 °F - 28.6 °F 78% 30.35 in 10.0 mi Calm Calm - N/A   Unknown
5:35 AM 34.5 °F - 29.3 °F 81% 30.35 in 10.0 mi Calm Calm - N/A   Unknown
5:55 AM 34.0 °F - 29.7 °F 84% 30.35 in 10.0 mi Calm Calm - N/A   Unknown
6:15 AM 34.9 °F - 29.3 °F 80% 30.36 in 10.0 mi Calm Calm - N/A   Unknown
6:35 AM 35.1 °F - 29.1 °F 79% 30.36 in 10.0 mi Calm Calm - N/A   Unknown
6:55 AM 34.2 °F - 30.2 °F 85% 30.36 in 10.0 mi Calm Calm - N/A   Unknown
7:15 AM 34.9 °F - 30.2 °F 83% 30.37 in 10.0 mi Calm Calm - N/A   Unknown
7:35 AM 36.5 °F 32.7 °F 29.1 °F 75% 30.37 in 10.0 mi SE 4.6 mph - N/A   Unknown
7:55 AM 38.1 °F 34.6 °F 28.2 °F 68% 30.37 in 10.0 mi East 4.6 mph - N/A   Unknown
8:15 AM 39.2 °F 37.0 °F 28.4 °F 65% 30.37 in 10.0 mi East 3.5 mph - N/A   Unknown
8:35 AM 41.0 °F 38.0 °F 28.0 °F 60% 30.38 in 10.0 mi East 4.6 mph - N/A   Unknown
8:55 AM 42.6 °F 38.4 °F 28.8 °F 58% 30.38 in 10.0 mi ESE 6.9 mph - N/A   Unknown
9:15 AM 43.7 °F 38.6 °F 28.0 °F 54% 30.37 in 10.0 mi ESE 9.2 mph - N/A   Unknown
9:35 AM 44.4 °F 41.2 °F 28.9 °F 55% 30.38 in 10.0 mi ESE 5.8 mph - N/A   Unknown
9:55 AM 45.5 °F 41.8 °F 28.6 °F 52% 30.38 in 10.0 mi ESE 6.9 mph - N/A   Unknown
10:15 AM 46.6 °F - 30.2 °F 53% 30.38 in 10.0 mi ESE 8.1 mph - N/A   Clear
10:35 AM 47.3 °F - 30.0 °F 51% 30.38 in 10.0 mi ESE 5.8 mph - N/A   Unknown
10:55 AM 47.3 °F - 28.4 °F 48% 30.39 in 10.0 mi ESE 4.6 mph - N/A   Unknown
11:15 AM 48.4 °F - 29.8 °F 49% 30.38 in 10.0 mi East 5.8 mph - N/A   Clear
11:35 AM 49.5 °F - 31.5 °F 50% 30.38 in 10.0 mi East 6.9 mph - N/A   Clear
11:55 AM 50.0 °F - 31.8 °F 50% 30.37 in 10.0 mi ESE 6.9 mph - N/A   Clear
12:15 PM 51.3 °F - 33.3 °F 50% 30.37 in 10.0 mi ESE 5.8 mph - N/A   Unknown
12:35 PM 51.3 °F - 32.4 °F 48% 30.37 in 10.0 mi ESE 5.8 mph - N/A   Unknown
12:55 PM 51.8 °F - 32.4 °F 48% 30.36 in 10.0 mi ESE 3.5 mph - N/A   Unknown
1:15 PM 52.2 °F - 32.7 °F 48% 30.35 in 10.0 mi East 5.8 mph - N/A   Unknown
1:35 PM 53.1 °F - 33.4 °F 47% 30.34 in 10.0 mi SE 5.8 mph - N/A   Unknown
1:55 PM 54.1 °F - 34.2 °F 47% 30.34 in 10.0 mi East 4.6 mph - N/A   Unknown
2:15 PM 54.9 °F - 35.2 °F 48% 30.33 in 10.0 mi ENE 5.8 mph - N/A   Unknown
2:35 PM 55.0 °F - 35.6 °F 48% 30.32 in 10.0 mi East 8.1 mph - N/A   Unknown
2:55 PM 55.9 °F - 35.8 °F 47% 30.31 in 10.0 mi SE 5.8 mph - N/A   Unknown
3:15 PM 56.1 °F - 35.2 °F 45% 30.30 in 10.0 mi SE 6.9 mph - N/A   Unknown
3:35 PM 56.7 °F - 35.6 °F 45% 30.29 in 10.0 mi SE 6.9 mph - N/A   Unknown
3:55 PM 56.8 °F - 35.6 °F 45% 30.29 in 10.0 mi SE 4.6 mph - N/A   Unknown
4:15 PM 57.4 °F - 36.1 °F 45% 30.29 in 10.0 mi ESE 5.8 mph - N/A   Unknown
4:35 PM 56.5 °F - 35.6 °F 46% 30.29 in 10.0 mi ESE 5.8 mph - N/A   Unknown
4:55 PM 56.7 °F - 36.5 °F 47% 30.28 in 10.0 mi SE 4.6 mph - N/A   Unknown
5:15 PM 57.2 °F - 36.3 °F 46% 30.28 in 10.0 mi ESE 4.6 mph - N/A   Unknown
5:35 PM 57.2 °F - 37.2 °F 47% 30.27 in 10.0 mi East 4.6 mph - N/A   Unknown
5:55 PM 56.3 °F - 36.7 °F 48% 30.27 in 10.0 mi East 3.5 mph - N/A   Unknown
6:15 PM 56.1 °F - 37.9 °F 51% 30.26 in 10.0 mi East 3.5 mph - N/A   Unknown
6:35 PM 55.8 °F - 37.0 °F 49% 30.27 in 10.0 mi East 4.6 mph - N/A   Unknown
6:55 PM 55.4 °F - 37.6 °F 51% 30.27 in 10.0 mi East 3.5 mph - N/A   Unknown
7:15 PM 54.3 °F - 37.8 °F 54% 30.28 in 10.0 mi East 3.5 mph - N/A   Unknown
7:35 PM 53.6 °F - 37.8 °F 55% 30.28 in 10.0 mi East 3.5 mph - N/A   Unknown
7:55 PM 53.1 °F - 38.3 °F 57% 30.28 in 10.0 mi Calm Calm - N/A   Unknown
8:15 PM 52.9 °F - 37.2 °F 55% 30.29 in 10.0 mi East 3.5 mph - N/A   Unknown
8:35 PM 52.7 °F - 37.2 °F 56% 30.29 in 10.0 mi ENE 4.6 mph - N/A   Unknown
8:55 PM 52.3 °F - 36.7 °F 55% 30.29 in 10.0 mi East 4.6 mph - N/A   Unknown
9:15 PM 52.0 °F - 37.0 °F 57% 30.29 in 10.0 mi East 3.5 mph - N/A   Unknown
9:35 PM 51.8 °F - 36.9 °F 57% 30.30 in 10.0 mi Calm Calm - N/A   Unknown
9:55 PM 51.3 °F - 36.7 °F 57% 30.30 in 10.0 mi East 3.5 mph - N/A   Unknown
10:15 PM 50.9 °F - 36.9 °F 59% 30.29 in 10.0 mi ESE 3.5 mph - N/A   Unknown
10:35 PM 50.4 °F - 35.6 °F 57% 30.30 in 10.0 mi East 3.5 mph - N/A   Unknown
10:55 PM 50.2 °F - 34.7 °F 55% 30.29 in 10.0 mi East 4.6 mph - N/A   Unknown
11:15 PM 50.0 °F - 34.5 °F 55% 30.28 in 10.0 mi ESE 4.6 mph - N/A   Unknown
11:35 PM 49.8 °F - 34.3 °F 55% 30.28 in 10.0 mi ESE 4.6 mph - N/A   Unknown
11:55 PM 49.6 °F - 34.2 °F 55% 30.27 in 10.0 mi ESE 4.6 mph - N/A   Unknown